Tiempo atmosférico en la estación meteorológica de Albox, Almería (508 m.)



Fecha
DESCASC
Temp. máxima en grados centígrados (hora)
DESCASC
Temp. mínima en grados centígrados (hora)
DESCASC
Temp. media en grados centígrados
DESCASC
Racha de viento máxima en m/sg (hora)
DESCASC
Velocidad máxima media en intervalos de 10 minutos(hora)
DESCASC
Precipitaciones diarias en mm
DESCASC
Precipitaciones de 00:00 a 06:00 en mm
DESCASC
Precipitaciones de 06:00 a 12:00 en mm
DESCASC
Precipitaciones de 12:00 a 18:00 en mm
DESCASC
Precipitaciones de 18:00 a 24:00 en mm
DESCASC
18-02-2018 15.5 (14:30) 9.6 (04:00) 12.6 5.56 (14:10) 3.33 (14:20) 1.6 0 0 0 1.6
17-02-2018 23.3 (15:10) 9.6 (00:20) 16.4 12.22 (09:30) 9.44 (09:00) 0 0 0 0 0
16-02-2018 22.2 (14:00) 9.2 (00:10) 15.7 7.22 (16:30) 4.72 (16:10) 0 0 0 0 0
15-02-2018 22 (15:00) 6.6 (00:00) 14.3 7.78 (15:50) 5.28 (00:10) 0 0 0 0 0
14-02-2018 20.2 (15:20) 6.3 (00:00) 13.3 15 (06:20) 11.11 (06:20) 0 0 0 0 0
13-02-2018 17.1 (14:20) 2.9 (00:00) 10 16.11 (16:30) 12.22 (22:50) 0 0 0 0 0
12-02-2018 18 (13:00) 7.6 (00:00) 12.8 17.5 (17:50) 11.39 (12:50) 0 0 0 0 0
11-02-2018 19.6 (14:10) 4.7 (00:00) 12.2 11.94 (14:40) 8.89 (14:40) 0 0 0 0 0
10-02-2018 15.7 (15:20) 5.2 (00:00) 10.4 12.78 (10:50) 9.44 (11:10) 0 0 0 0 0
09-02-2018 13.9 (16:30) 0.3 (00:00) 7.1 12.78 (14:50) 8.06 (19:40) 0 0 0 0 0
08-02-2018 14.1 (15:10) 1.8 (00:00) 8 7.78 (16:20) 5 (16:20) 0 0 0 0 0
07-02-2018 13.4 (16:00) 2.1 (00:00) 7.7 13.33 (06:20) 10.56 (06:10) 0 0 0 0 0
06-02-2018 11.2 (15:30) 1.9 (00:00) 6.5 14.17 (18:50) 10.28 (16:50) 0 0 0 0 0
05-02-2018 10.8 (15:00) 1 (00:00) 5.9 7.78 (13:30) 5.28 (08:50) 0 0 0 0 0
04-02-2018 12 (15:20) 4.3 (00:00) 8.2 14.17 (03:50) 10.56 (04:00) 2.2 0 0 0 2.2
03-02-2018 13.5 (15:30) 2.8 (00:00) 8.1 15.56 (02:40) 11.67 (02:50) 0 0 0 0 0
02-02-2018 9.8 (16:10) 4 (00:00) 6.9 17.5 (12:00) 12.22 (14:40) 0.2 0 0.2 0 0
01-02-2018 15.8 (15:00) 6.1 (00:00) 11 18.61 (12:10) 13.33 (12:30) 0 0 0 0 0
31-01-2018 15.8 (14:30) 4.2 (00:00) 10 8.89 (23:40) 6.67 (23:40) 0.6 0 0 0 0.6
30-01-2018 15 (15:10) 4.3 (00:00) 9.7 6.67 (15:40) 4.72 (16:20) 0 0 0 0 0
29-01-2018 15.3 (14:20) 6.1 (00:00) 10.7 10 (12:50) 6.39 (11:40) 0 0 0 0 0
28-01-2018 12.6 (16:50) 3.1 (00:00) 7.9 15.83 (11:50) 8.61 (11:50) 7 5.8 1 0.2 0
27-01-2018 12.4 (14:00) 5.6 (00:00) 9 16.11 (00:20) 10.83 (00:20) 0 0 0 0 0
26-01-2018 11.3 (00:00) 6.4 (00:00) 8.9 20 (09:00) 14.17 (13:30) 0 0 0 0 0
25-01-2018 19.4 (16:10) 6.4 (00:00) 12.9 13.89 (23:59) 9.72 (19:30) 0 0 0 0 0
24-01-2018 20.7 (14:50) 6.7 (00:00) 13.7 5.83 (15:50) 3.89 (15:40) 0 0 0 0 0
23-01-2018 22.8 (14:40) 9 (00:00) 15.9 6.39 (16:20) 4.44 (16:40) 0 0 0 0 0
22-01-2018 26 (15:00) 8.8 (00:00) 17.4 8.89 (01:00) 6.67 (01:20) 0 0 0 0 0

Gráficas

Temp. máximas Temp. mínimas Temp. medias Precipitaciones Rachas de viento máximas Velocidades máximas media en intervalos de 10 minutos

Datos horarios

Fecha y hora oficial Temperatura (ºC) Velocidad del viento (km/h) Dirección del viento Racha (km/h) Dirección de racha Precipitación (mm) Presión (hPa) Tendencia (hPa) Humedad (%)
2018-02-20 23:00:00 12.9 16 Oeste 27 Oeste 0 -- -- 53
2018-02-20 22:00:00 13.8 19 Oeste 31 Oeste 0 -- -- 51
2018-02-20 21:00:00 13.8 21 Noroeste 30 Oeste 0 -- -- 50
2018-02-20 20:00:00 14.9 14 Noroeste 32 Oeste 0 -- -- 46
2018-02-20 19:00:00 16.3 18 Noroeste 29 Oeste 0 -- -- 42
2018-02-20 18:00:00 19.8 23 Noroeste 33 Noroeste 0 -- -- 34
2018-02-20 17:00:00 20.7 17 Oeste 33 Oeste 0 -- -- 34
2018-02-20 16:00:00 19 18 Noroeste 34 Oeste 0 -- -- 39
2018-02-20 15:00:00 19.8 25 Oeste 36 Oeste 0 -- -- 38
2018-02-20 14:00:00 19 18 Noroeste 29 Noroeste 0 -- -- 39
2018-02-20 13:00:00 17.9 16 Noroeste 34 Oeste 0 -- -- 39
2018-02-20 12:00:00 16.3 26 Oeste 43 Oeste 0 -- -- 46
2018-02-20 11:00:00 14.4 26 Oeste 39 Oeste 0 -- -- 51
2018-02-20 10:00:00 11.7 22 Oeste 32 Sudoeste 0 -- -- 60
2018-02-20 09:00:00 9 13 Oeste 26 Oeste 0 -- -- 69
2018-02-20 08:00:00 7 8 Noroeste 12 Noroeste 0 -- -- 75
2018-02-20 07:00:00 7.1 4 Noroeste 21 Oeste 0 -- -- 76
2018-02-20 06:00:00 7.1 9 Oeste 13 Noroeste 0 -- -- 77
2018-02-20 05:00:00 7.4 9 Noroeste 17 Oeste 0 -- -- 77
2018-02-20 04:00:00 7.1 12 Noroeste 15 Oeste 0 -- -- 80
2018-02-20 03:00:00 7.1 9 Noroeste 13 Noroeste 0 -- -- 81
2018-02-20 02:00:00 6.5 9 Noroeste 13 Noroeste 0 -- -- 89
2018-02-20 01:00:00 6.9 9 Norte 10 Norte 0 -- -- 94
2018-02-20 00:00:00 7.8 4 Norte 15 Oeste 0 -- -- 94
2018-02-19 23:00:00 8.6 9 Oeste 14 Oeste 0 -- -- 95
2018-02-19 22:00:00 8.8 6 Noroeste 8 Oeste 0 -- -- 94
2018-02-19 21:00:00 9.3 3 Sudeste 8 Este 0 -- -- 90
2018-02-19 20:00:00 9.7 6 Nordeste 17 Este 0 -- -- 91
2018-02-19 19:00:00 11 13 Este 22 Este 0.2 -- -- 85
2018-02-19 18:00:00 14.2 12 Este 21 Sudeste 0 -- -- 71
2018-02-19 17:00:00 15.8 10 Este 21 Sudeste 0 -- -- 63
2018-02-19 16:00:00 16.6 8 Sur 15 Sur 0 -- -- 62
2018-02-19 15:00:00 15.2 5 Sur 17 Sudeste 0 -- -- 70
2018-02-19 14:00:00 13.4 9 Sudeste 15 Sudeste 0 -- -- 78
2018-02-19 13:00:00 13.1 8 Sudeste 12 Este 0 -- -- 82
2018-02-19 12:00:00 12.6 3 Sudeste 9 Sudeste 0 -- -- 87
2018-02-19 11:00:00 11.2 0 Calma 4 Sudeste 0 -- -- 92
2018-02-19 10:00:00 10.2 0 Calma 5 Norte 0 -- -- 94
2018-02-19 09:00:00 9.4 3 Norte 9 Norte 0 -- -- 95
2018-02-19 08:00:00 9.1 3 Noroeste 9 Oeste 0 -- -- 94
2018-02-19 07:00:00 9.6 5 Sudeste 9 Sudeste 2.6 -- -- 94
2018-02-19 06:00:00 9.9 0 Calma 3 Sudeste 0 -- -- 94
2018-02-19 05:00:00 9.7 3 Norte 5 Norte 0 -- -- 95
2018-02-19 04:00:00 9.7 3 Nordeste 6 Este 0.4 -- -- 94
2018-02-19 03:00:00 9.9 0 Calma 5 Sur 0 -- -- 94
2018-02-19 02:00:00 10 3 Sudeste 8 Sudeste 0.6 -- -- 94
2018-02-19 01:00:00 10.2 3 Sudeste 8 Este 0.6 -- -- 94
2018-02-19 00:00:00 10.2 5 Este 10 Este 1.4 -- -- 93
2018-02-18 23:00:00 10.6 7 Este 13 Este 0.2 -- -- 92
2018-02-18 22:00:00 10.9 4 Sudeste 10 Sudeste 0 -- -- 89
2018-02-18 21:00:00 10.9 4 Sudeste 10 Sudeste 0 -- -- 87
2018-02-18 20:00:00 11.2 6 Sudeste 14 Sudeste 0 -- -- 85
2018-02-18 19:00:00 11.5 8 Sudeste 16 Sudeste 0 -- -- 81
2018-02-18 18:00:00 12.6 9 Sudeste 17 Sudeste 0 -- -- 74
2018-02-18 17:00:00 13.6 10 Sudeste 19 Sudeste 0 -- -- 69
2018-02-18 16:00:00 14.2 9 Sudeste 19 Sudeste 0 -- -- 66
2018-02-18 15:00:00 15 7 Sudeste 20 Este 0 -- -- 63
2018-02-18 14:00:00 14.5 9 Sudeste 19 Este 0 -- -- 66
2018-02-18 13:00:00 14.4 9 Sudeste 19 Sudeste 0 -- -- 64
2018-02-18 12:00:00 14.5 7 Sudeste 15 Este 0 -- -- 63
2018-02-18 11:00:00 13.1 4 Sur 9 Sur 0 -- -- 67
2018-02-18 10:00:00 11.7 3 Sudeste 5 Sudeste 0 -- -- 71
2018-02-18 09:00:00 10.8 0 Calma 4 Sudeste 0 -- -- 71
2018-02-18 08:00:00 10.5 0 Calma 2 Sudeste 0 -- -- 71
2018-02-18 07:00:00 10.3 2 Nordeste 4 Nordeste 0 -- -- 72
2018-02-18 06:00:00 10.3 3 Este 12 Este 0 -- -- 71
2018-02-18 05:00:00 10.1 5 Nordeste 7 Norte 0 -- -- 70
2018-02-18 04:00:00 9.6 4 Nordeste 10 Noroeste 0 -- -- 70
2018-02-18 03:00:00 11 8 Noroeste 11 Noroeste 0 -- -- 63
2018-02-18 02:00:00 11.1 3 Noroeste 8 Este 0 -- -- 61
2018-02-18 01:00:00 12 3 Sur 8 Este 0 -- -- 60
2018-02-18 00:00:00 12.9 8 Este 15 Este 0 -- -- 60
2018-02-17 23:00:00 12.4 8 Norte 12 Noroeste 0 -- -- 56
2018-02-17 22:00:00 11.9 6 Noroeste 11 Noroeste 0 -- -- 61
2018-02-17 21:00:00 13.2 0 Calma 7 Nordeste 0 -- -- 59
2018-02-17 20:00:00 13.8 3 Nordeste 15 Nordeste 0 -- -- 58
2018-02-17 19:00:00 15.6 12 Nordeste 23 Este 0 -- -- 53
2018-02-17 18:00:00 18.7 14 Este 24 Este 0 -- -- 45
2018-02-17 17:00:00 20.4 17 Este 26 Este 0 -- -- 40
2018-02-17 16:00:00 22.1 14 Sudeste 29 Oeste 0 -- -- 35
2018-02-17 15:00:00 23.2 19 Sudoeste 34 Oeste 0 -- -- 24
2018-02-17 14:00:00 22.2 17 Oeste 35 Oeste 0 -- -- 28
2018-02-17 13:00:00 21.1 22 Oeste 32 Sudoeste 0 -- -- 32
2018-02-17 12:00:00 19.3 16 Sudoeste 30 Oeste 0 -- -- 36
2018-02-17 11:00:00 16.8 22 Oeste 41 Oeste 0 -- -- 45
2018-02-17 10:00:00 14.3 24 Oeste 44 Oeste 0 -- -- 56
2018-02-17 09:00:00 12.4 34 Oeste 41 Oeste 0 -- -- 63
2018-02-17 08:00:00 11.5 23 Oeste 34 Oeste 0 -- -- 65
2018-02-17 07:00:00 11.9 24 Oeste 36 Oeste 0 -- -- 64
2018-02-17 06:00:00 12.1 23 Oeste 36 Oeste 0 -- -- 63
2018-02-17 05:00:00 12.5 28 Oeste 37 Oeste 0 -- -- 62
2018-02-17 04:00:00 12.3 22 Oeste 33 Oeste 0 -- -- 64
2018-02-17 03:00:00 11.4 12 Oeste 30 Noroeste 0 -- -- 63
2018-02-17 02:00:00 12.2 11 Noroeste 16 Noroeste 0 -- -- 58
2018-02-17 01:00:00 10.2 6 Oeste 12 Noroeste 0 -- -- 67
2018-02-17 00:00:00 9.9 7 Noroeste 11 Noroeste 0 -- -- 70
2018-02-16 23:00:00 9.8 8 Noroeste 11 Noroeste 0 -- -- 69
2018-02-16 22:00:00 10.5 7 Oeste 10 Oeste 0 -- -- 67
2018-02-16 21:00:00 11.2 3 Oeste 6 Oeste 0 -- -- 65
2018-02-16 20:00:00 12.1 4 Este 13 Este 0 -- -- 65
2018-02-16 19:00:00 13.8 6 Este 19 Este 0 -- -- 54
2018-02-16 18:00:00 16.6 13 Este 22 Este 0 -- -- 48
2018-02-16 17:00:00 18.9 14 Este 26 Este 0 -- -- 45
2018-02-16 16:00:00 20.2 16 Este 25 Este 0 -- -- 40
2018-02-16 15:00:00 22.1 13 Sudeste 22 Sudeste 0 -- -- 38
2018-02-16 14:00:00 22.2 10 Sudeste 21 Este 0 -- -- 38
2018-02-16 13:00:00 20 8 Este 15 Sudeste 0 -- -- 42
2018-02-16 12:00:00 19 6 Este 18 Sudeste 0 -- -- 46
2018-02-16 11:00:00 17.2 8 Sudeste 14 Este 0 -- -- 51
2018-02-16 10:00:00 13.1 0 Calma 5 Noroeste 0 -- -- 63
2018-02-16 09:00:00 11.1 3 Norte 7 Norte 0 -- -- 69
2018-02-16 08:00:00 10 6 Norte 11 Norte 0 -- -- 73
2018-02-16 07:00:00 10.7 5 Noroeste 7 Noroeste 0 -- -- 70
2018-02-16 06:00:00 11.3 5 Norte 8 Norte 0 -- -- 67
2018-02-16 05:00:00 10.9 6 Noroeste 9 Oeste 0 -- -- 67
2018-02-16 04:00:00 10.8 5 Noroeste 13 Norte 0 -- -- 68
2018-02-16 03:00:00 10.4 9 Noroeste 14 Norte 0 -- -- 68
2018-02-16 02:00:00 9.7 9 Noroeste 10 Noroeste 0 -- -- 69
2018-02-16 01:00:00 9.4 6 Noroeste 9 Noroeste 0 -- -- 68
2018-02-16 00:00:00 9.3 4 Norte 7 Norte 0 -- -- 68
2018-02-15 23:00:00 10.1 5 Noroeste 8 Noroeste 0 -- -- 65
2018-02-15 22:00:00 10.4 6 Noroeste 8 Noroeste 0 -- -- 63
2018-02-15 21:00:00 11.1 4 Noroeste 5 Noroeste 0 -- -- 60
2018-02-15 20:00:00 12.2 4 Este 14 Este 0 -- -- 56
2018-02-15 19:00:00 14.6 9 Este 17 Este 0 -- -- 51
2018-02-15 18:00:00 17.4 12 Este 26 Este 0 -- -- 46
2018-02-15 17:00:00 19.6 16 Este 27 Este 0 -- -- 42
2018-02-15 16:00:00 20.8 17 Este 28 Este 0 -- -- 39
2018-02-15 15:00:00 22 10 Sudeste 18 Sudeste 0 -- -- 35
2018-02-15 14:00:00 20.2 5 Nordeste 14 Este 0 -- -- 37
2018-02-15 13:00:00 19.3 6 Sudeste 15 Sudoeste 0 -- -- 40
2018-02-15 12:00:00 17.4 8 Sudoeste 19 Oeste 0 -- -- 45
2018-02-15 11:00:00 14.7 10 Sudoeste 17 Oeste 0 -- -- 52
2018-02-15 10:00:00 11.6 0 Calma 7 Sudoeste 0 -- -- 60
2018-02-15 09:00:00 7.7 5 Oeste 10 Noroeste 0 -- -- 72
2018-02-15 08:00:00 7.1 6 Noroeste 10 Noroeste 0 -- -- 72
2018-02-15 07:00:00 7 8 Noroeste 11 Oeste 0 -- -- 72
2018-02-15 06:00:00 6.9 5 Noroeste 12 Oeste 0 -- -- 70
2018-02-15 05:00:00 8 7 Oeste 19 Sudoeste 0 -- -- 67
2018-02-15 04:00:00 7.9 5 Oeste 15 Sudoeste 0 -- -- 68
2018-02-15 03:00:00 8.9 2 Sudoeste 13 Noroeste 0 -- -- 62
2018-02-15 02:00:00 9.4 7 Oeste 14 Noroeste 0 -- -- 60
2018-02-15 01:00:00 10.1 13 Oeste 28 Oeste 0 -- -- 58
2018-02-15 00:00:00 10.1 16 Oeste 23 Oeste 0 -- -- 58
2018-02-14 23:00:00 10 15 Noroeste 32 Oeste 0 -- -- 57
2018-02-14 22:00:00 10.9 27 Oeste 42 Oeste 0 -- -- 53
2018-02-14 21:00:00 11.4 17 Oeste 34 Oeste 0 -- -- 49
2018-02-14 20:00:00 12.6 21 Oeste 39 Oeste 0 -- -- 44
2018-02-14 19:00:00 14.1 24 Sudoeste 34 Oeste 0 -- -- 40
2018-02-14 18:00:00 17.3 18 Oeste 40 Oeste 0 -- -- 33
2018-02-14 17:00:00 19.1 27 Oeste 38 Oeste 0 -- -- 29
2018-02-14 16:00:00 20 25 Oeste 39 Noroeste 0 -- -- 22
2018-02-14 15:00:00 19.4 26 Noroeste 41 Noroeste 0 -- -- 27
2018-02-14 14:00:00 18.8 21 Oeste 33 Oeste 0 -- -- 30
2018-02-14 13:00:00 16.4 27 Oeste 44 Oeste 0 -- -- 36
2018-02-14 12:00:00 15 27 Oeste 43 Oeste 0 -- -- 38
2018-02-14 11:00:00 12.7 27 Oeste 42 Oeste 0 -- -- 44
2018-02-14 10:00:00 10.2 28 Oeste 41 Oeste 0 -- -- 51
2018-02-14 09:00:00 7.4 24 Oeste 32 Oeste 0 -- -- 54
2018-02-14 08:00:00 6.8 18 Sudoeste 44 Oeste 0 -- -- 54
2018-02-14 07:00:00 8 30 Oeste 54 Oeste 0 -- -- 50
2018-02-14 06:00:00 7.1 22 Oeste 31 Sudoeste 0 -- -- 53
2018-02-14 05:00:00 7.1 0 Calma 29 Oeste 0 -- -- 49
2018-02-14 04:00:00 7.9 24 Oeste 39 Oeste 0 -- -- 48
2018-02-14 03:00:00 8 23 Oeste 42 Oeste 0 -- -- 50
2018-02-14 02:00:00 8.7 20 Oeste 40 Oeste 0 -- -- 47
2018-02-14 01:00:00 9.1 27 Oeste 47 Oeste 0 -- -- 42
2018-02-14 00:00:00 9.4 35 Noroeste 51 Oeste 0 -- -- 43
2018-02-13 23:00:00 9 40 Oeste 55 Oeste 0 -- -- 44
2018-02-13 22:00:00 9.2 31 Oeste 44 Oeste 0 -- -- 43
2018-02-13 21:00:00 9.8 29 Oeste 44 Oeste 0 -- -- 45
2018-02-13 20:00:00 10.4 28 Oeste 41 Oeste 0 -- -- 49
2018-02-13 19:00:00 11.8 21 Noroeste 41 Noroeste 0 -- -- 45
2018-02-13 18:00:00 14.7 28 Oeste 46 Oeste 0 -- -- 35
2018-02-13 17:00:00 15.8 38 Oeste 58 Oeste 0 -- -- 27
2018-02-13 16:00:00 16.5 40 Oeste 57 Oeste 0 -- -- 28
2018-02-13 15:00:00 16.8 31 Noroeste 46 Oeste 0 -- -- 24
2018-02-13 14:00:00 16.7 23 Sudoeste 47 Sudoeste 0 -- -- 23
2018-02-13 13:00:00 15.1 22 Oeste 47 Oeste 0 -- -- 27
2018-02-13 12:00:00 14 17 Oeste 27 Oeste 0 -- -- 29
2018-02-13 11:00:00 10.5 14 Sudoeste 21 Sudoeste 0 -- -- 37
2018-02-13 10:00:00 7 5 Sudoeste 9 Oeste 0 -- -- 51
2018-02-13 09:00:00 4 2 Sur 7 Este 0 -- -- 62
2018-02-13 08:00:00 2.9 4 Noroeste 10 Norte 0 -- -- 67
2018-02-13 07:00:00 5 10 Norte 21 Oeste 0 -- -- 60
2018-02-13 06:00:00 4.1 6 Oeste 17 Oeste 0 -- -- 66
2018-02-13 05:00:00 5.2 14 Oeste 19 Oeste 0 -- -- 64
2018-02-13 04:00:00 4.8 10 Noroeste 13 Oeste 0 -- -- 71
2018-02-13 03:00:00 6.2 12 Oeste 27 Noroeste 0 -- -- 67
2018-02-13 02:00:00 6.3 10 Noroeste 19 Oeste 0 -- -- 70
2018-02-13 01:00:00 6.3 14 Oeste 23 Oeste 0 -- -- 73
2018-02-13 00:00:00 7.6 15 Oeste 28 Oeste 0 -- -- 70
2018-02-12 23:00:00 8.2 16 Oeste 27 Oeste 0 -- -- 63
2018-02-12 22:00:00 8.9 2 Este 22 Noroeste 0 -- -- 64
2018-02-12 21:00:00 10 15 Noroeste 37 Oeste 0 -- -- 62
2018-02-12 20:00:00 10.6 22 Noroeste 43 Noroeste 0 -- -- 58
2018-02-12 19:00:00 11.3 25 Oeste 46 Oeste 0 -- -- 61
2018-02-12 18:00:00 13.3 33 Noroeste 63 Oeste 0 -- -- 52
2018-02-12 17:00:00 15.6 37 Oeste 58 Noroeste 0 -- -- 50
2018-02-12 16:00:00 13.8 13 Oeste 52 Oeste 0 -- -- 57
2018-02-12 15:00:00 13.1 33 Oeste 57 Oeste 0 -- -- 56
2018-02-12 14:00:00 14.1 27 Oeste 58 Oeste 0 -- -- 54
2018-02-12 13:00:00 18 39 Oeste 57 Oeste 0 -- -- 42
2018-02-12 12:00:00 16.6 39 Oeste 51 Oeste 0 -- -- 44
2018-02-12 11:00:00 14.2 38 Oeste 53 Oeste 0 -- -- 50
2018-02-12 10:00:00 12.7 23 Oeste 42 Oeste 0 -- -- 55
2018-02-12 09:00:00 11 21 Noroeste 27 Noroeste 0 -- -- 64
2018-02-12 08:00:00 10 3 Sudoeste 28 Noroeste 0 -- -- 64
2018-02-12 07:00:00 10.4 14 Noroeste 21 Noroeste 0 -- -- 65
2018-02-12 06:00:00 10.4 11 Noroeste 18 Noroeste 0 -- -- 66
2018-02-12 05:00:00 11.4 17 Oeste 33 Oeste 0 -- -- 63
2018-02-12 04:00:00 11.5 25 Oeste 34 Oeste 0 -- -- 62
2018-02-12 03:00:00 10.9 18 Noroeste 28 Noroeste 0 -- -- 64
2018-02-12 02:00:00 11.1 23 Oeste 37 Oeste 0 -- -- 60
2018-02-12 01:00:00 11.1 26 Oeste 38 Oeste 0 -- -- 57
2018-02-12 00:00:00 10.5 16 Oeste 31 Sudoeste 0 -- -- 58
2018-02-11 23:00:00 11.2 21 Sudoeste 41 Oeste 0 -- -- 53
2018-02-11 22:00:00 12.4 25 Oeste 39 Oeste 0 -- -- 50
2018-02-11 21:00:00 12.8 23 Oeste 33 Oeste 0 -- -- 50
2018-02-11 20:00:00 13.4 21 Noroeste 41 Oeste 0 -- -- 48
2018-02-11 19:00:00 14.8 24 Oeste 41 Noroeste 0 -- -- 44
2018-02-11 18:00:00 17.9 27 Oeste 41 Oeste 0 -- -- 37
2018-02-11 17:00:00 19.3 27 Oeste 43 Oeste 0 -- -- 33
2018-02-11 16:00:00 19.4 30 Oeste 40 Oeste 0 -- -- 32
2018-02-11 15:00:00 19.5 27 Oeste 43 Oeste 0 -- -- 32
2018-02-11 14:00:00 19.2 17 Oeste 30 Oeste 0 -- -- 33
2018-02-11 13:00:00 17.2 23 Oeste 35 Sudoeste 0 -- -- 34
2018-02-11 12:00:00 14.1 25 Sudoeste 38 Sudoeste 0 -- -- 37
2018-02-11 11:00:00 11.9 25 Oeste 43 Oeste 0 -- -- 40
2018-02-11 10:00:00 8.7 23 Oeste 38 Oeste 0 -- -- 45
2018-02-11 09:00:00 6.1 10 Sudoeste 37 Oeste 0 -- -- 51
2018-02-11 08:00:00 5.9 22 Oeste 36 Oeste 0 -- -- 51
2018-02-11 07:00:00 5.6 23 Oeste 39 Oeste 0 -- -- 52
2018-02-11 06:00:00 5.9 27 Oeste 36 Oeste 0 -- -- 51
2018-02-11 05:00:00 5.2 8 Oeste 29 Oeste 0 -- -- 53
2018-02-11 04:00:00 5.8 20 Oeste 31 Oeste 0 -- -- 51
2018-02-11 03:00:00 6 20 Oeste 32 Oeste 0 -- -- 50
2018-02-11 02:00:00 6.1 22 Oeste 32 Noroeste 0 -- -- 50
2018-02-11 01:00:00 6.2 22 Oeste 30 Oeste 0 -- -- 49
2018-02-11 00:00:00 6 16 Oeste 25 Oeste 0 -- -- 48
2018-02-10 23:00:00 7.6 18 Oeste 31 Oeste 0 -- -- 42
2018-02-10 22:00:00 7.4 11 Oeste 17 Oeste 0 -- -- 43
2018-02-10 21:00:00 8.3 12 Noroeste 26 Noroeste 0 -- -- 39
2018-02-10 20:00:00 8.8 16 Noroeste 28 Noroeste 0 -- -- 37
2018-02-10 19:00:00 9.7 19 Noroeste 32 Noroeste 0 -- -- 35
2018-02-10 18:00:00 10.9 21 Noroeste 32 Noroeste 0 -- -- 30
2018-02-10 17:00:00 12.5 12 Oeste 32 Sudoeste 0 -- -- 27
2018-02-10 16:00:00 13 21 Oeste 45 Sudoeste 0 -- -- 33
2018-02-10 15:00:00 15.1 24 Oeste 42 Oeste 0 -- -- 28
2018-02-10 14:00:00 12.7 29 Oeste 44 Oeste 0 -- -- 35
2018-02-10 13:00:00 11.5 28 Oeste 45 Oeste 0 -- -- 37
2018-02-10 12:00:00 10.3 32 Oeste 46 Oeste 0 -- -- 42
2018-02-10 11:00:00 8.2 34 Oeste 46 Oeste 0 -- -- 53
2018-02-10 10:00:00 7.3 26 Oeste 37 Oeste 0 -- -- 55
2018-02-10 09:00:00 6.2 21 Noroeste 30 Noroeste 0 -- -- 57
2018-02-10 08:00:00 5.2 21 Oeste 37 Noroeste 0 -- -- 59
2018-02-10 07:00:00 6 31 Noroeste 45 Oeste 0 -- -- 55
2018-02-10 06:00:00 5.9 21 Noroeste 39 Noroeste 0 -- -- 56
2018-02-10 05:00:00 5.8 27 Sudoeste 44 Sudoeste 0 -- -- 54
2018-02-10 04:00:00 6.4 27 Sudoeste 37 Oeste 0 -- -- 52
2018-02-10 03:00:00 6.2 20 Oeste 35 Sudoeste 0 -- -- 52
2018-02-10 02:00:00 6.3 21 Oeste 31 Sudoeste 0 -- -- 52
2018-02-10 01:00:00 6.6 24 Oeste 35 Oeste 0 -- -- 51
2018-02-10 00:00:00 6.4 23 Sudoeste 37 Sudoeste 0 -- -- 52
2018-02-09 23:00:00 6.5 23 Sudoeste 34 Sudoeste 0 -- -- 50
2018-02-09 22:00:00 6.8 12 Sudoeste 31 Sudoeste 0 -- -- 48
2018-02-09 21:00:00 7.4 22 Oeste 34 Oeste 0 -- -- 45
2018-02-09 20:00:00 7.9 24 Noroeste 40 Noroeste 0 -- -- 42
2018-02-09 19:00:00 8.8 23 Noroeste 34 Oeste 0 -- -- 37
2018-02-09 18:00:00 12 15 Oeste 35 Sudoeste 0 -- -- 31
2018-02-09 17:00:00 12.7 25 Oeste 35 Sudoeste 0 -- -- 29
2018-02-09 16:00:00 13.1 12 Noroeste 38 Oeste 0 -- -- 29
2018-02-09 15:00:00 12.1 27 Oeste 46 Oeste 0 -- -- 32
2018-02-09 14:00:00 12.6 22 Oeste 33 Oeste 0 -- -- 30
2018-02-09 13:00:00 11.1 15 Oeste 31 Oeste 0 -- -- 33
2018-02-09 12:00:00 9.5 17 Noroeste 33 Oeste 0 -- -- 34
2018-02-09 11:00:00 7.2 24 Oeste 39 Oeste 0 -- -- 42
2018-02-09 10:00:00 4.4 22 Oeste 31 Oeste 0 -- -- 50
2018-02-09 09:00:00 1.3 3 Sudoeste 14 Norte 0 -- -- 59
2018-02-09 08:00:00 0.8 6 Noroeste 27 Oeste 0 -- -- 60
2018-02-09 07:00:00 1.6 17 Oeste 25 Oeste 0 -- -- 57
2018-02-09 06:00:00 1.2 18 Oeste 27 Oeste 0 -- -- 60
2018-02-09 05:00:00 0.7 6 Noroeste 20 Noroeste 0 -- -- 62
2018-02-09 04:00:00 1.9 14 Oeste 24 Oeste 0 -- -- 58
2018-02-09 03:00:00 2.2 18 Oeste 27 Oeste 0 -- -- 59
2018-02-09 02:00:00 1.9 14 Oeste 26 Sudoeste 0 -- -- 62
2018-02-09 01:00:00 1.9 7 Noroeste 19 Noroeste 0 -- -- 68
2018-02-09 00:00:00 3.2 13 Noroeste 18 Noroeste 0 -- -- 64
2018-02-08 23:00:00 3.9 6 Noroeste 8 Norte 0 -- -- 81
2018-02-08 22:00:00 4.9 4 Noroeste 6 Noroeste 0 -- -- 76
2018-02-08 21:00:00 5.5 0 Calma 7 Este 0 -- -- 76
2018-02-08 20:00:00 5.3 5 Nordeste 9 Nordeste 0 -- -- 76
2018-02-08 19:00:00 6.5 5 Este 17 Este 0 -- -- 68
2018-02-08 18:00:00 8.2 10 Sudeste 19 Sudeste 0 -- -- 63
2018-02-08 17:00:00 8.3 12 Sudeste 28 Sudeste 0 -- -- 58
2018-02-08 16:00:00 10.8 14 Sudeste 27 Sudeste 0 -- -- 47
2018-02-08 15:00:00 13.8 10 Sudeste 23 Sudeste 0 -- -- 37
2018-02-08 14:00:00 13.4 6 Sur 21 Este 0 -- -- 39
2018-02-08 13:00:00 12.5 9 Sudeste 18 Este 0 -- -- 44
2018-02-08 12:00:00 11.3 8 Sudeste 14 Sudeste 0 -- -- 51
2018-02-08 11:00:00 8.5 2 Oeste 7 Oeste 0 -- -- 62
2018-02-08 10:00:00 5.5 4 Sudoeste 6 Sudoeste 0 -- -- 74
2018-02-08 09:00:00 2.4 4 Noroeste 14 Noroeste 0 -- -- 83
2018-02-08 08:00:00 2.1 6 Norte 10 Norte 0 -- -- 84
2018-02-08 07:00:00 2.1 7 Norte 10 Norte 0 -- -- 86
2018-02-08 06:00:00 3.1 3 Norte 6 Sudoeste 0 -- -- 86
2018-02-08 05:00:00 3.7 4 Oeste 8 Noroeste 0 -- -- 88
2018-02-08 04:00:00 4 5 Noroeste 6 Noroeste 0 -- -- 87
2018-02-08 03:00:00 4 3 Norte 4 Norte 0 -- -- 87
2018-02-08 02:00:00 4.3 0 Calma 5 Sudoeste 0 -- -- 85
2018-02-08 01:00:00 4.1 3 Sudoeste 6 Sudoeste 0 -- -- 82
2018-02-08 00:00:00 5.2 3 Sudeste 8 Sudeste 0 -- -- 79
2018-02-07 23:00:00 5.3 5 Nordeste 10 Nordeste 0 -- -- 79
2018-02-07 22:00:00 6.1 4 Este 14 Este 0 -- -- 76
2018-02-07 21:00:00 6.4 10 Este 17 Este 0 -- -- 75
2018-02-07 20:00:00 6.3 8 Este 17 Este 0 -- -- 74
2018-02-07 19:00:00 6.4 9 Este 20 Este 0 -- -- 67
2018-02-07 18:00:00 7.8 13 Este 24 Este 0 -- -- 59
2018-02-07 17:00:00 11.2 13 Sudeste 34 Sudeste 0 -- -- 48
2018-02-07 16:00:00 13.4 15 Sudeste 26 Sudeste 0 -- -- 33
2018-02-07 15:00:00 13.1 13 Sudoeste 25 Oeste 0 -- -- 30
2018-02-07 14:00:00 12.4 14 Sudoeste 32 Oeste 0 -- -- 31
2018-02-07 13:00:00 11.6 15 Oeste 29 Sudoeste 0 -- -- 33
2018-02-07 12:00:00 9.9 12 Oeste 27 Sudoeste 0 -- -- 38
2018-02-07 11:00:00 7.2 17 Oeste 32 Oeste 0 -- -- 45
2018-02-07 10:00:00 4.9 25 Oeste 46 Oeste 0 -- -- 52
2018-02-07 09:00:00 3 33 Oeste 45 Oeste 0 -- -- 59
2018-02-07 08:00:00 2.4 31 Oeste 39 Oeste 0 -- -- 64
2018-02-07 07:00:00 2.1 27 Oeste 48 Oeste 0 -- -- 69
2018-02-07 06:00:00 2.6 34 Oeste 45 Oeste 0 -- -- 67
2018-02-07 05:00:00 2.8 29 Oeste 40 Sudoeste 0 -- -- 67
2018-02-07 04:00:00 2.1 17 Sudoeste 35 Oeste 0 -- -- 71
2018-02-07 03:00:00 2.7 18 Oeste 40 Oeste 0 -- -- 67
2018-02-07 02:00:00 2.9 23 Oeste 37 Oeste 0 -- -- 67
2018-02-07 01:00:00 3 24 Oeste 42 Oeste 0 -- -- 66
2018-02-07 00:00:00 3.4 27 Oeste 47 Oeste 0 -- -- 64
2018-02-06 23:00:00 3.7 28 Oeste 44 Oeste 0 -- -- 62
2018-02-06 22:00:00 3.7 25 Oeste 39 Oeste 0 -- -- 62
2018-02-06 21:00:00 4.4 26 Oeste 43 Oeste 0 -- -- 60
2018-02-06 20:00:00 4.8 27 Oeste 47 Oeste 0 -- -- 63
2018-02-06 19:00:00 5.6 35 Oeste 51 Oeste 0 -- -- 61
2018-02-06 18:00:00 7.7 34 Oeste 50 Oeste 0 -- -- 54
2018-02-06 17:00:00 8.3 32 Oeste 49 Oeste 0 -- -- 50
2018-02-06 16:00:00 10.2 28 Oeste 42 Oeste 0 -- -- 44
2018-02-06 15:00:00 10.9 30 Oeste 45 Oeste 0 -- -- 40
2018-02-06 14:00:00 10.7 28 Oeste 45 Oeste 0 -- -- 43
2018-02-06 13:00:00 10.3 27 Oeste 35 Sudoeste 0 -- -- 43
2018-02-06 12:00:00 8.7 22 Sudoeste 35 Sudoeste 0 -- -- 51
2018-02-06 11:00:00 6.2 23 Sudoeste 31 Sudoeste 0 -- -- 60
2018-02-06 10:00:00 4.3 17 Oeste 32 Oeste 0 -- -- 65
2018-02-06 09:00:00 2.4 21 Oeste 32 Oeste 0 -- -- 72
2018-02-06 08:00:00 1.9 14 Oeste 27 Oeste 0 -- -- 74
2018-02-06 07:00:00 2.7 18 Oeste 31 Oeste 0 -- -- 71
2018-02-06 06:00:00 2.7 16 Oeste 21 Oeste 0 -- -- 73
2018-02-06 05:00:00 3.1 16 Oeste 23 Oeste 0 -- -- 73
2018-02-06 04:00:00 3.5 13 Oeste 19 Oeste 0 -- -- 74
2018-02-06 03:00:00 3.8 15 Oeste 21 Oeste 0 -- -- 73
2018-02-06 02:00:00 4.3 13 Oeste 20 Oeste 0 -- -- 68
2018-02-06 01:00:00 4.1 11 Oeste 21 Oeste 0 -- -- 70
2018-02-06 00:00:00 3.5 3 Oeste 17 Oeste 0 -- -- 75
2018-02-05 23:00:00 4.1 9 Oeste 14 Oeste 0 -- -- 71
2018-02-05 22:00:00 4.7 9 Oeste 17 Sudoeste 0 -- -- 69
2018-02-05 21:00:00 5.8 6 Noroeste 9 Noroeste 0 -- -- 64
2018-02-05 20:00:00 5.9 5 Nordeste 15 Oeste 0 -- -- 69
2018-02-05 19:00:00 6.8 13 Sudoeste 17 Sudoeste 0 -- -- 58
2018-02-05 18:00:00 8.3 8 Oeste 17 Oeste 0 -- -- 50
2018-02-05 17:00:00 9.3 9 Oeste 20 Oeste 0 -- -- 47
2018-02-05 16:00:00 9.7 14 Oeste 19 Oeste 0 -- -- 47
2018-02-05 15:00:00 10.8 9 Oeste 22 Oeste 0 -- -- 45
2018-02-05 14:00:00 9 16 Oeste 28 Oeste 0 -- -- 47
2018-02-05 13:00:00 8.8 13 Oeste 24 Oeste 0 -- -- 57
2018-02-05 12:00:00 6 12 Oeste 19 Sudoeste 0 -- -- 69
2018-02-05 11:00:00 4.7 12 Sudoeste 17 Sudoeste 0 -- -- 75
2018-02-05 10:00:00 3.2 9 Noroeste 27 Oeste 0 -- -- 82
2018-02-05 09:00:00 2.5 19 Noroeste 27 Oeste 0 -- -- 81
2018-02-05 08:00:00 2.4 12 Noroeste 27 Oeste 0 -- -- 84
2018-02-05 07:00:00 1.4 5 Noroeste 15 Oeste 0 -- -- 92
2018-02-05 06:00:00 1.1 6 Oeste 20 Oeste 0 -- -- 91
2018-02-05 05:00:00 1.6 10 Oeste 19 Oeste 0 -- -- 92
2018-02-05 04:00:00 2.4 0 Calma 7 Noroeste 0 -- -- 93
2018-02-05 03:00:00 2.5 4 Noroeste 8 Norte 0 -- -- 94
2018-02-05 02:00:00 3.2 5 Noroeste 8 Oeste 0 -- -- 93
2018-02-05 01:00:00 3.8 2 Norte 8 Este 0 -- -- 92
2018-02-05 00:00:00 4.4 2 Sudeste 12 Oeste 0 -- -- 92
2018-02-04 23:00:00 4.3 12 Sudoeste 21 Sudoeste 0 -- -- 92
2018-02-04 22:00:00 5.5 4 Nordeste 19 Sudoeste 1.2 -- -- 90
2018-02-04 21:00:00 6.3 7 Sudeste 13 Norte 0.2 -- -- 83
2018-02-04 20:00:00 6.2 7 Nordeste 18 Sur 0.8 -- -- 79
2018-02-04 19:00:00 8.5 10 Sudeste 24 Sudeste 0 -- -- 63
2018-02-04 18:00:00 10 3 Este 10 Sudoeste 0 -- -- 50
2018-02-04 17:00:00 10.5 4 Noroeste 19 Oeste 0 -- -- 49
2018-02-04 16:00:00 11.1 11 Noroeste 28 Oeste 0 -- -- 48
2018-02-04 15:00:00 11.3 17 Oeste 31 Oeste 0 -- -- 48
2018-02-04 14:00:00 9.7 21 Oeste 39 Oeste 0 -- -- 54
2018-02-04 13:00:00 9.7 24 Noroeste 43 Oeste 0 -- -- 54
2018-02-04 12:00:00 10.2 30 Oeste 43 Oeste 0 -- -- 52
2018-02-04 11:00:00 8 10 Oeste 25 Oeste 0 -- -- 60
2018-02-04 10:00:00 6.9 15 Oeste 35 Oeste 0 -- -- 62
2018-02-04 09:00:00 6 12 Oeste 27 Oeste 0 -- -- 54
2018-02-04 08:00:00 5.4 16 Sudoeste 24 Sudoeste 0 -- -- 52
2018-02-04 07:00:00 5.7 12 Sudoeste 21 Sudoeste 0 -- -- 49
2018-02-04 06:00:00 5.4 10 Oeste 24 Oeste 0 -- -- 49
2018-02-04 05:00:00 6.2 19 Oeste 45 Oeste 0 -- -- 47
2018-02-04 04:00:00 6.6 38 Oeste 51 Oeste 0 -- -- 45
2018-02-04 03:00:00 6.5 35 Oeste 50 Oeste 0 -- -- 44
2018-02-04 02:00:00 6.7 27 Oeste 43 Oeste 0 -- -- 43
2018-02-04 01:00:00 7.1 29 Oeste 46 Oeste 0 -- -- 41
2018-02-04 00:00:00 7 25 Oeste 39 Sudoeste 0 -- -- 40
2018-02-03 23:00:00 6.6 11 Oeste 44 Oeste 0 -- -- 41
2018-02-03 22:00:00 6.9 17 Oeste 35 Oeste 0 -- -- 41
2018-02-03 21:00:00 6.7 24 Oeste 40 Sudoeste 0 -- -- 44
2018-02-03 20:00:00 7.3 19 Oeste 33 Sudoeste 0 -- -- 42
2018-02-03 19:00:00 8.1 13 Oeste 35 Oeste 0 -- -- 39
2018-02-03 18:00:00 11.1 22 Oeste 39 Noroeste 0 -- -- 29
2018-02-03 17:00:00 12.7 23 Oeste 37 Oeste 0 -- -- 29
2018-02-03 16:00:00 13.2 26 Oeste 36 Oeste 0 -- -- 29
2018-02-03 15:00:00 12.9 23 Oeste 39 Oeste 0 -- -- 31
2018-02-03 14:00:00 12.1 21 Oeste 44 Oeste 0 -- -- 32
2018-02-03 13:00:00 10.6 26 Oeste 46 Oeste 0 -- -- 35
2018-02-03 12:00:00 9.1 32 Oeste 46 Oeste 0 -- -- 40
2018-02-03 11:00:00 7.5 30 Oeste 48 Oeste 0 -- -- 43
2018-02-03 10:00:00 5.7 26 Oeste 41 Oeste 0 -- -- 48
2018-02-03 09:00:00 3.7 15 Oeste 35 Oeste 0 -- -- 53
2018-02-03 08:00:00 3 23 Oeste 38 Oeste 0 -- -- 55
2018-02-03 07:00:00 3.3 25 Oeste 45 Oeste 0 -- -- 54
2018-02-03 06:00:00 4 33 Noroeste 50 Noroeste 0 -- -- 52
2018-02-03 05:00:00 4 32 Oeste 45 Oeste 0 -- -- 51
2018-02-03 04:00:00 3.8 34 Oeste 48 Oeste 0 -- -- 55
2018-02-03 03:00:00 4.1 36 Oeste 56 Oeste 0 -- -- 54
2018-02-03 02:00:00 4.5 35 Oeste 47 Oeste 0 -- -- 55
2018-02-03 01:00:00 4.8 28 Oeste 48 Oeste 0 -- -- 54
2018-02-03 00:00:00 5.2 37 Oeste 50 Oeste 0 -- -- 50
2018-02-02 23:00:00 4.8 30 Sudoeste 45 Sudoeste 0 -- -- 57
2018-02-02 22:00:00 5.2 35 Oeste 48 Oeste 0 -- -- 57
2018-02-02 21:00:00 5.2 27 Oeste 38 Oeste 0 -- -- 58
2018-02-02 20:00:00 5.4 24 Oeste 44 Oeste 0 -- -- 57
2018-02-02 19:00:00 6 27 Oeste 49 Oeste 0 -- -- 55
2018-02-02 18:00:00 7.9 32 Oeste 54 Oeste 0 -- -- 49
2018-02-02 17:00:00 9.3 37 Oeste 59 Oeste 0 -- -- 42
2018-02-02 16:00:00 9.3 38 Oeste 55 Oeste 0 -- -- 46
2018-02-02 15:00:00 9.3 41 Oeste 61 Oeste 0 -- -- 46
2018-02-02 14:00:00 9.6 37 Oeste 59 Oeste 0 -- -- 45
2018-02-02 13:00:00 8.7 37 Oeste 62 Oeste 0 -- -- 48
2018-02-02 12:00:00 8.6 40 Oeste 63 Oeste 0 -- -- 45
2018-02-02 11:00:00 5.8 33 Oeste 54 Oeste 0 -- -- 57
2018-02-02 10:00:00 5.9 35 Oeste 51 Oeste 0.2 -- -- 59
2018-02-02 09:00:00 5.2 29 Oeste 42 Oeste 0 -- -- 66
2018-02-02 08:00:00 4.1 27 Sudoeste 41 Sudoeste 0 -- -- 80
2018-02-02 07:00:00 4.6 10 Sudoeste 23 Sudoeste 0 -- -- 83
2018-02-02 06:00:00 5.6 14 Oeste 28 Norte 0 -- -- 75
2018-02-02 05:00:00 6.1 15 Norte 31 Oeste 0 -- -- 70
2018-02-02 04:00:00 6.5 22 Oeste 35 Oeste 0 -- -- 72
2018-02-02 03:00:00 6.1 22 Oeste 41 Oeste 0 -- -- 78
2018-02-02 02:00:00 8.3 23 Oeste 33 Oeste 0 -- -- 70
2018-02-02 01:00:00 7.6 22 Oeste 32 Sudoeste 0 -- -- 78
2018-02-02 00:00:00 8.6 29 Oeste 47 Noroeste 0 -- -- 70
2018-02-01 23:00:00 10.6 9 Oeste 26 Sudoeste 0 -- -- 53
2018-02-01 22:00:00 11.3 19 Oeste 44 Oeste 0 -- -- 53
2018-02-01 21:00:00 11.3 13 Noroeste 31 Oeste 0 -- -- 55
2018-02-01 20:00:00 11.5 22 Oeste 44 Oeste 0 -- -- 57
2018-02-01 19:00:00 12 30 Oeste 45 Noroeste 0 -- -- 58
2018-02-01 18:00:00 12.5 21 Noroeste 40 Oeste 0 -- -- 56
2018-02-01 17:00:00 13.2 28 Oeste 54 Oeste 0 -- -- 54
2018-02-01 16:00:00 14.4 38 Oeste 57 Oeste 0 -- -- 48
2018-02-01 15:00:00 15.8 40 Oeste 60 Oeste 0 -- -- 44
2018-02-01 14:00:00 15.7 41 Oeste 59 Oeste 0 -- -- 46
2018-02-01 13:00:00 14.1 45 Oeste 67 Oeste 0 -- -- 53
2018-02-01 12:00:00 14 37 Oeste 52 Oeste 0 -- -- 53
2018-02-01 11:00:00 11.8 31 Oeste 45 Oeste 0 -- -- 62
2018-02-01 10:00:00 10.6 21 Oeste 33 Oeste 0 -- -- 68
2018-02-01 09:00:00 7.4 18 Oeste 28 Oeste 0 -- -- 82
2018-02-01 08:00:00 6.3 5 Oeste 12 Norte 0 -- -- 86
2018-02-01 07:00:00 7.4 2 Sur 9 Oeste 0 -- -- 83
2018-02-01 06:00:00 7.8 5 Sudoeste 13 Norte 0 -- -- 88
2018-02-01 05:00:00 8.6 2 Norte 10 Oeste 0 -- -- 84
2018-02-01 04:00:00 8.5 5 Oeste 10 Noroeste 0 -- -- 83
2018-02-01 03:00:00 8.5 8 Noroeste 13 Noroeste 0 -- -- 89
2018-02-01 02:00:00 8.7 9 Norte 18 Sudoeste 0 -- -- 90
2018-02-01 01:00:00 8.7 6 Sur 18 Oeste 0 -- -- 90
2018-02-01 00:00:00 9 10 Noroeste 32 Noroeste 0.6 -- -- 89
2018-01-31 23:00:00 9.1 3 Sudoeste 13 Oeste 0 -- -- 93
2018-01-31 22:00:00 9.2 6 Sur 9 Noroeste 0 -- -- 92
2018-01-31 21:00:00 9.7 0 Calma 5 Sur 0 -- -- 89
2018-01-31 20:00:00 9.8 4 Sudeste 14 Nordeste 0 -- -- 89
2018-01-31 19:00:00 10 8 Este 21 Sudeste 0 -- -- 85
2018-01-31 18:00:00 11.3 11 Sudeste 21 Sudeste 0 -- -- 72
2018-01-31 17:00:00 12.7 9 Este 13 Sudeste 0 -- -- 58
2018-01-31 16:00:00 14.1 6 Este 12 Sudeste 0 -- -- 54
2018-01-31 15:00:00 14.8 6 Sudeste 22 Sudeste 0 -- -- 52
2018-01-31 14:00:00 14.9 5 Norte 11 Norte 0 -- -- 50
2018-01-31 13:00:00 13 5 Oeste 10 Sur 0 -- -- 58
2018-01-31 12:00:00 11.8 3 Sudoeste 12 Sur 0 -- -- 59
2018-01-31 11:00:00 10.5 3 Sudoeste 8 Oeste 0 -- -- 65
2018-01-31 10:00:00 7.5 3 Sudoeste 8 Noroeste 0 -- -- 80
2018-01-31 09:00:00 4.8 3 Noroeste 12 Noroeste 0 -- -- 83
2018-01-31 08:00:00 5 9 Norte 13 Norte 0 -- -- 81
2018-01-31 07:00:00 4.6 9 Norte 13 Norte 0 -- -- 84
2018-01-31 06:00:00 4.9 10 Norte 15 Norte 0 -- -- 83
2018-01-31 05:00:00 4.8 10 Norte 13 Norte 0 -- -- 85
2018-01-31 04:00:00 4.2 8 Norte 10 Norte 0 -- -- 87
2018-01-31 03:00:00 5.2 7 Noroeste 12 Noroeste 0 -- -- 85
2018-01-31 02:00:00 5.1 9 Noroeste 12 Noroeste 0 -- -- 86
2018-01-31 01:00:00 5.7 7 Norte 11 Norte 0 -- -- 85
2018-01-31 00:00:00 6.8 9 Norte 12 Noroeste 0 -- -- 82
2018-01-30 23:00:00 7.4 7 Norte 9 Norte 0 -- -- 81
2018-01-30 22:00:00 8 3 Norte 9 Noroeste 0 -- -- 79
2018-01-30 21:00:00 8.4 3 Norte 6 Noroeste 0 -- -- 78
2018-01-30 20:00:00 8.6 6 Este 13 Nordeste 0 -- -- 77
2018-01-30 19:00:00 10.2 9 Nordeste 17 Este 0 -- -- 70
2018-01-30 18:00:00 11.8 9 Este 21 Este 0 -- -- 63
2018-01-30 17:00:00 13 12 Este 24 Este 0 -- -- 59
2018-01-30 16:00:00 14.2 16 Este 24 Este 0 -- -- 61
2018-01-30 15:00:00 14.8 14 Este 23 Sudeste 0 -- -- 62
2018-01-30 14:00:00 13.6 4 Nordeste 18 Este 0 -- -- 62
2018-01-30 13:00:00 13 5 Este 11 Sudeste 0 -- -- 64
2018-01-30 12:00:00 10.7 5 Sudoeste 10 Sudoeste 0 -- -- 71
2018-01-30 11:00:00 9.6 0 Calma 4 Oeste 0 -- -- 78
2018-01-30 10:00:00 8 3 Oeste 6 Sur 0 -- -- 80
2018-01-30 09:00:00 7.7 6 Norte 20 Norte 0 -- -- 77
2018-01-30 08:00:00 6.8 9 Norte 13 Norte 0 -- -- 80
2018-01-30 07:00:00 6.2 7 Noroeste 10 Norte 0 -- -- 82
2018-01-30 06:00:00 5.6 8 Norte 13 Noroeste 0 -- -- 83
2018-01-30 05:00:00 4.3 5 Noroeste 12 Noroeste 0 -- -- 87
2018-01-30 04:00:00 4.9 8 Norte 11 Noroeste 0 -- -- 86
2018-01-30 03:00:00 5.7 6 Noroeste 10 Nordeste 0 -- -- 84
2018-01-30 02:00:00 6.2 8 Norte 17 Norte 0 -- -- 82
2018-01-30 01:00:00 6.3 11 Norte 15 Norte 0 -- -- 84
2018-01-30 00:00:00 6.2 7 Norte 12 Norte 0 -- -- 86
2018-01-29 23:00:00 6.6 7 Norte 13 Norte 0 -- -- 86
2018-01-29 22:00:00 7.6 8 Norte 10 Norte 0 -- -- 84
2018-01-29 21:00:00 8.4 0 Calma 8 Este 0 -- -- 80
2018-01-29 20:00:00 9.2 4 Este 21 Este 0 -- -- 76
2018-01-29 19:00:00 10.8 15 Este 30 Nordeste 0 -- -- 69
2018-01-29 18:00:00 11.6 16 Este 29 Este 0 -- -- 68
2018-01-29 17:00:00 12.5 14 Este 27 Este 0 -- -- 64
2018-01-29 16:00:00 12.8 16 Este 27 Nordeste 0 -- -- 60
2018-01-29 15:00:00 13.7 13 Este 32 Este 0 -- -- 59
2018-01-29 14:00:00 13.5 14 Este 30 Este 0 -- -- 61
2018-01-29 13:00:00 12.4 20 Este 36 Nordeste 0 -- -- 62
2018-01-29 12:00:00 12.7 19 Nordeste 32 Nordeste 0 -- -- 62
2018-01-29 11:00:00 11.5 15 Nordeste 28 Este 0 -- -- 68
2018-01-29 10:00:00 10 11 Nordeste 18 Este 0 -- -- 75
2018-01-29 09:00:00 8 8 Nordeste 18 Nordeste 0 -- -- 82
2018-01-29 08:00:00 7.2 8 Nordeste 10 Nordeste 0 -- -- 86
2018-01-29 07:00:00 7.2 4 Nordeste 11 Nordeste 0 -- -- 86
2018-01-29 06:00:00 7.4 4 Nordeste 9 Nordeste 0 -- -- 85
2018-01-29 05:00:00 8.1 3 Norte 11 Sudeste 0 -- -- 82
2018-01-29 04:00:00 8.7 6 Este 25 Este 0 -- -- 82
2018-01-29 03:00:00 9 11 Nordeste 25 Nordeste 0 -- -- 81
2018-01-29 02:00:00 8.8 11 Este 20 Este 0 -- -- 84
2018-01-29 01:00:00 8.6 3 Norte 7 Norte 0 -- -- 84
2018-01-29 00:00:00 8.7 3 Oeste 11 Sur 0 -- -- 83
2018-01-28 23:00:00 8.8 8 Este 25 Este 0 -- -- 82
2018-01-28 22:00:00 8 3 Nordeste 10 Nordeste 0 -- -- 79
2018-01-28 21:00:00 9 4 Este 19 Este 0 -- -- 77
2018-01-28 20:00:00 9.3 4 Nordeste 17 Este 0 -- -- 72
2018-01-28 19:00:00 9.6 10 Este 33 Este 0 -- -- 74
2018-01-28 18:00:00 10.5 18 Este 36 Este 0.2 -- -- 68
2018-01-28 17:00:00 12.5 18 Este 32 Este 0 -- -- 63
2018-01-28 16:00:00 12 21 Este 36 Este 0 -- -- 59
2018-01-28 15:00:00 11.6 21 Este 40 Este 0 -- -- 63
2018-01-28 14:00:00 9.6 23 Este 50 Sudeste 0 -- -- 71
2018-01-28 13:00:00 8.5 22 Este 48 Este 0 -- -- 79
2018-01-28 12:00:00 8.1 24 Este 57 Este 0 -- -- 82
2018-01-28 11:00:00 7.7 24 Este 48 Nordeste 0 -- -- 88
2018-01-28 10:00:00 6.1 26 Nordeste 45 Nordeste 0.6 -- -- 89
2018-01-28 09:00:00 5.4 24 Nordeste 33 Nordeste 0 -- -- 86
2018-01-28 08:00:00 3.6 6 Sudoeste 14 Sudoeste 0 -- -- 94
2018-01-28 07:00:00 3.1 13 Sudoeste 18 Oeste 0.4 -- -- 94
2018-01-28 06:00:00 3.4 5 Sur 21 Sudoeste 1 -- -- 92
2018-01-28 05:00:00 4.1 4 Sudeste 12 Sudoeste 2 -- -- 90
2018-01-28 04:00:00 4.6 5 Sur 32 Norte 2.6 -- -- 85
2018-01-28 03:00:00 5.5 17 Nordeste 35 Nordeste 0 -- -- 78
2018-01-28 02:00:00 6.3 15 Oeste 34 Noroeste 0 -- -- 70
2018-01-28 01:00:00 6.2 12 Noroeste 43 Norte 0.2 -- -- 73
2018-01-28 00:00:00 8 21 Norte 41 Nordeste 0 -- -- 50
2018-01-27 23:00:00 7.5 11 Noroeste 24 Noroeste 0 -- -- 49
2018-01-27 22:00:00 8 5 Noroeste 30 Nordeste 0 -- -- 43
2018-01-27 21:00:00 8.3 11 Norte 26 Nordeste 0 -- -- 41
2018-01-27 20:00:00 9 13 Norte 21 Norte 0 -- -- 42
2018-01-27 19:00:00 9.6 9 Norte 26 Nordeste 0 -- -- 40
2018-01-27 18:00:00 10.1 20 Nordeste 32 Nordeste 0 -- -- 39
2018-01-27 17:00:00 10.8 21 Nordeste 27 Nordeste 0 -- -- 35
2018-01-27 16:00:00 11.4 9 Nordeste 22 Nordeste 0 -- -- 34
2018-01-27 15:00:00 11.9 10 Nordeste 21 Oeste 0 -- -- 34
2018-01-27 14:00:00 12.4 13 Noroeste 25 Norte 0 -- -- 36
2018-01-27 13:00:00 12.1 10 Norte 31 Oeste 0 -- -- 36
2018-01-27 12:00:00 9.2 11 Oeste 36 Oeste 0 -- -- 44
2018-01-27 11:00:00 8.1 23 Oeste 38 Sudoeste 0 -- -- 48
2018-01-27 10:00:00 6.6 22 Oeste 36 Oeste 0 -- -- 53
2018-01-27 09:00:00 6.2 16 Oeste 44 Oeste 0 -- -- 53
2018-01-27 08:00:00 5.9 26 Oeste 39 Sudoeste 0 -- -- 53
2018-01-27 07:00:00 5.6 24 Oeste 36 Oeste 0 -- -- 56
2018-01-27 06:00:00 6.2 22 Oeste 37 Oeste 0 -- -- 52
2018-01-27 05:00:00 6.7 23 Oeste 41 Noroeste 0 -- -- 52
2018-01-27 04:00:00 6.6 20 Oeste 39 Noroeste 0 -- -- 52
2018-01-27 03:00:00 6.5 22 Oeste 45 Oeste 0 -- -- 61
2018-01-27 02:00:00 6.7 31 Oeste 44 Oeste 0 -- -- 60
2018-01-27 01:00:00 6.8 26 Oeste 58 Oeste 0 -- -- 59
2018-01-27 00:00:00 7.1 31 Oeste 47 Oeste 0 -- -- 56
2018-01-26 23:00:00 7.1 31 Oeste 49 Oeste 0 -- -- 59
2018-01-26 22:00:00 7.3 35 Oeste 47 Oeste 0 -- -- 59
2018-01-26 21:00:00 7.4 37 Oeste 53 Oeste 0 -- -- 60
2018-01-26 20:00:00 7.5 38 Oeste 53 Oeste 0 -- -- 59
2018-01-26 19:00:00 7.8 35 Oeste 55 Oeste 0 -- -- 58
2018-01-26 18:00:00 9.5 35 Oeste 61 Oeste 0 -- -- 47
2018-01-26 17:00:00 11.1 40 Oeste 68 Oeste 0 -- -- 44
2018-01-26 16:00:00 9.8 49 Oeste 69 Oeste 0 -- -- 46
2018-01-26 15:00:00 9.9 49 Oeste 67 Oeste 0 -- -- 46
2018-01-26 14:00:00 9.5 44 Oeste 68 Oeste 0 -- -- 49
2018-01-26 13:00:00 8.7 46 Oeste 65 Oeste 0 -- -- 53
2018-01-26 12:00:00 9 37 Oeste 67 Oeste 0 -- -- 54
2018-01-26 11:00:00 6.9 49 Oeste 70 Oeste 0 -- -- 60
2018-01-26 10:00:00 7.1 41 Oeste 64 Oeste 0 -- -- 59
2018-01-26 09:00:00 6.9 45 Oeste 72 Oeste 0 -- -- 59
2018-01-26 08:00:00 6.5 35 Oeste 64 Oeste 0 -- -- 62
2018-01-26 07:00:00 6.5 41 Oeste 67 Oeste 0 -- -- 64
2018-01-26 06:00:00 6.5 38 Oeste 63 Oeste 0 -- -- 66
2018-01-26 05:00:00 7.3 34 Oeste 54 Noroeste 0 -- -- 61
2018-01-26 04:00:00 7.5 34 Noroeste 62 Oeste 0 -- -- 67
2018-01-26 03:00:00 8.5 31 Oeste 53 Oeste 0 -- -- 61
2018-01-26 02:00:00 8.9 32 Oeste 53 Oeste 0 -- -- 64
2018-01-26 01:00:00 9.5 31 Oeste 54 Oeste 0 -- -- 64
2018-01-26 00:00:00 11.3 34 Oeste 50 Oeste 0 -- -- 66
2018-01-25 23:00:00 12.1 27 Oeste 40 Oeste 0 -- -- 63
2018-01-25 22:00:00 12.3 26 Oeste 45 Noroeste 0 -- -- 59
2018-01-25 21:00:00 11.9 29 Noroeste 45 Oeste 0 -- -- 62
2018-01-25 20:00:00 13 28 Oeste 46 Noroeste 0 -- -- 54
2018-01-25 19:00:00 14.7 27 Oeste 42 Oeste 0 -- -- 43
2018-01-25 18:00:00 17.6 15 Oeste 39 Oeste 0 -- -- 33
2018-01-25 17:00:00 18.3 3 Sur 11 Sudoeste 0 -- -- 49
2018-01-25 16:00:00 19.2 4 Sudoeste 14 Sur 0 -- -- 41
2018-01-25 15:00:00 18.8 6 Sudeste 14 Sudeste 0 -- -- 41
2018-01-25 14:00:00 17.3 6 Sur 12 Sudeste 0 -- -- 45
2018-01-25 13:00:00 16.1 7 Sur 15 Sur 0 -- -- 48
2018-01-25 12:00:00 14.4 4 Sudeste 10 Sur 0 -- -- 49
2018-01-25 11:00:00 11.6 4 Este 9 Este 0 -- -- 56
2018-01-25 10:00:00 9.7 6 Este 9 Este 0 -- -- 61
2018-01-25 09:00:00 6.5 3 Este 11 Nordeste 0 -- -- 74
2018-01-25 08:00:00 7 7 Norte 10 Norte 0 -- -- 71
2018-01-25 07:00:00 6.9 6 Norte 9 Norte 0 -- -- 74
2018-01-25 06:00:00 7.8 6 Norte 14 Norte 0 -- -- 72
2018-01-25 05:00:00 7.9 11 Norte 14 Norte 0 -- -- 74
2018-01-25 04:00:00 7.7 9 Norte 12 Noroeste 0 -- -- 75
2018-01-25 03:00:00 7.8 7 Noroeste 13 Noroeste 0 -- -- 75
2018-01-25 02:00:00 8.8 8 Norte 13 Norte 0 -- -- 72
2018-01-25 01:00:00 8.6 6 Norte 12 Norte 0 -- -- 75
2018-01-25 00:00:00 8.2 4 Norte 10 Noroeste 0 -- -- 76
2018-01-24 23:00:00 8.8 10 Noroeste 12 Noroeste 0 -- -- 79
2018-01-24 22:00:00 9.1 9 Norte 12 Norte 0 -- -- 83
2018-01-24 21:00:00 9.6 4 Noroeste 6 Noroeste 0 -- -- 81
2018-01-24 20:00:00 10.9 3 Norte 5 Este 0 -- -- 85
2018-01-24 19:00:00 12.2 4 Este 12 Sudeste 0 -- -- 77
2018-01-24 18:00:00 15.4 9 Sudeste 17 Sudeste 0 -- -- 62
2018-01-24 17:00:00 17.6 11 Sudeste 19 Sudeste 0 -- -- 53
2018-01-24 16:00:00 19.2 14 Este 21 Este 0 -- -- 47
2018-01-24 15:00:00 20.5 9 Sudeste 21 Este 0 -- -- 37
2018-01-24 14:00:00 20.3 8 Sudeste 16 Sudeste 0 -- -- 36
2018-01-24 13:00:00 19 6 Sudeste 13 Sur 0 -- -- 41
2018-01-24 12:00:00 17.5 4 Sur 11 Sudeste 0 -- -- 47
2018-01-24 11:00:00 14.8 4 Sudeste 9 Sudeste 0 -- -- 56
2018-01-24 10:00:00 12.4 3 Nordeste 10 Norte 0 -- -- 63
2018-01-24 09:00:00 8.4 10 Nordeste 13 Norte 0 -- -- 73
2018-01-24 08:00:00 6.9 8 Nordeste 9 Nordeste 0 -- -- 75
2018-01-24 07:00:00 7.1 3 Noroeste 12 Noroeste 0 -- -- 73
2018-01-24 06:00:00 6.9 8 Noroeste 14 Noroeste 0 -- -- 72
2018-01-24 05:00:00 7.3 9 Noroeste 13 Norte 0 -- -- 73
2018-01-24 04:00:00 6.9 5 Noroeste 13 Noroeste 0 -- -- 72
2018-01-24 03:00:00 8.2 8 Noroeste 14 Norte 0 -- -- 67
2018-01-24 02:00:00 8.3 11 Norte 14 Norte 0 -- -- 67
2018-01-24 01:00:00 7.9 6 Norte 9 Nordeste 0 -- -- 70
2018-01-24 00:00:00 9 5 Norte 10 Noroeste 0 -- -- 69
2018-01-23 23:00:00 9.2 5 Norte 12 Norte 0 -- -- 69
2018-01-23 22:00:00 10.3 5 Norte 7 Norte 0 -- -- 66
2018-01-23 21:00:00 10.8 2 Nordeste 7 Norte 0 -- -- 64
2018-01-23 20:00:00 11.3 4 Nordeste 8 Este 0 -- -- 66
2018-01-23 19:00:00 13.4 6 Nordeste 14 Este 0 -- -- 58
2018-01-23 18:00:00 16.5 11 Este 21 Este 0 -- -- 48
2018-01-23 17:00:00 19.3 14 Este 23 Este 0 -- -- 40
2018-01-23 16:00:00 21.9 12 Sudeste 21 Sudeste 0 -- -- 33
2018-01-23 15:00:00 22.7 12 Sudeste 21 Sudeste 0 -- -- 29
2018-01-23 14:00:00 22.4 8 Sur 19 Sudeste 0 -- -- 29
2018-01-23 13:00:00 21.5 8 Sudeste 13 Sudeste 0 -- -- 30
2018-01-23 12:00:00 20 6 Sur 11 Sur 0 -- -- 33
2018-01-23 11:00:00 17 4 Sur 6 Sur 0 -- -- 38
2018-01-23 10:00:00 12.6 3 Noroeste 12 Norte 0 -- -- 49
2018-01-23 09:00:00 9.3 9 Noroeste 13 Norte 0 -- -- 52
2018-01-23 08:00:00 9 7 Oeste 13 Noroeste 0 -- -- 56
2018-01-23 07:00:00 10.2 4 Norte 12 Norte 0 -- -- 52
2018-01-23 06:00:00 10.6 6 Noroeste 11 Noroeste 0 -- -- 50
2018-01-23 05:00:00 10.6 6 Noroeste 12 Noroeste 0 -- -- 53
2018-01-23 04:00:00 9.9 6 Noroeste 13 Noroeste 0 -- -- 55
2018-01-23 03:00:00 10.5 6 Noroeste 10 Norte 0 -- -- 53
2018-01-23 02:00:00 11.9 6 Noroeste 12 Noroeste 0 -- -- 49
2018-01-23 01:00:00 12.8 8 Noroeste 13 Noroeste 0 -- -- 48
2018-01-23 00:00:00 12.6 5 Noroeste 10 Noroeste 0 -- -- 48
2018-01-22 23:00:00 13.4 4 Oeste 14 Noroeste 0 -- -- 46
2018-01-22 22:00:00 15.5 14 Noroeste 25 Noroeste 0 -- -- 41
2018-01-22 21:00:00 14.8 11 Noroeste 14 Noroeste 0 -- -- 38
2018-01-22 20:00:00 16.5 4 Noroeste 10 Noroeste 0 -- -- 40
2018-01-22 19:00:00 17.9 7 Norte 23 Oeste 0 -- -- 40
2018-01-22 18:00:00 21.9 19 Sudoeste 27 Sudoeste 0 -- -- 33
2018-01-22 17:00:00 24.8 22 Sudoeste 28 Sudoeste 0 -- -- 28
2018-01-22 16:00:00 25.9 19 Sudoeste 29 Sudoeste 0 -- -- 26
2018-01-22 15:00:00 26 17 Sudoeste 25 Sudoeste 0 -- -- 25
2018-01-22 14:00:00 25 14 Sudoeste 22 Sudoeste 0 -- -- 28
2018-01-22 13:00:00 23 5 Sudoeste 15 Sudoeste 0 -- -- 34
2018-01-22 12:00:00 20.3 8 Sudoeste 15 Oeste 0 -- -- 41
2018-01-22 11:00:00 16.2 12 Sudoeste 18 Sudoeste 0 -- -- 50
2018-01-22 10:00:00 11.8 5 Sudoeste 12 Sudoeste 0 -- -- 62
2018-01-22 09:00:00 9.4 6 Noroeste 10 Noroeste 0 -- -- 66
2018-01-22 08:00:00 9.3 7 Noroeste 14 Noroeste 0 -- -- 67
2018-01-22 07:00:00 9.5 9 Noroeste 18 Oeste 0 -- -- 67
2018-01-22 06:00:00 9.6 8 Noroeste 20 Oeste 0 -- -- 66
2018-01-22 05:00:00 10.2 9 Noroeste 18 Oeste 0 -- -- 65
2018-01-22 04:00:00 10 9 Noroeste 24 Noroeste 0 -- -- 65
2018-01-22 03:00:00 11.4 14 Noroeste 23 Oeste 0 -- -- 62
2018-01-22 02:00:00 12 13 Noroeste 32 Oeste 0 -- -- 60
2018-01-22 01:00:00 13.2 23 Oeste 32 Oeste 0 -- -- 57
2018-01-22 00:00:00 13 16 Oeste 30 Oeste 0 -- -- 57